sensor_id;sensor_type;location;lat;lon;timestamp;P1;durP1;ratioP1;P2;durP2;ratioP2
8337;SDS011;4206;48.634;9.516;2023-06-22T00:01:18;13.20;;;6.50;;
8337;SDS011;4206;48.634;9.516;2023-06-22T00:03:46;10.97;;;7.03;;
8337;SDS011;4206;48.634;9.516;2023-06-22T00:06:13;11.50;;;7.03;;
8337;SDS011;4206;48.634;9.516;2023-06-22T00:08:40;9.00;;;7.17;;
8337;SDS011;4206;48.634;9.516;2023-06-22T00:11:07;9.80;;;6.57;;
8337;SDS011;4206;48.634;9.516;2023-06-22T00:13:34;10.93;;;7.40;;
8337;SDS011;4206;48.634;9.516;2023-06-22T00:16:01;9.23;;;6.67;;
8337;SDS011;4206;48.634;9.516;2023-06-22T00:18:28;10.83;;;6.87;;
8337;SDS011;4206;48.634;9.516;2023-06-22T00:20:57;9.60;;;6.50;;
8337;SDS011;4206;48.634;9.516;2023-06-22T00:23:25;9.60;;;7.00;;
8337;SDS011;4206;48.634;9.516;2023-06-22T00:25:52;10.70;;;7.03;;
8337;SDS011;4206;48.634;9.516;2023-06-22T00:28:19;8.07;;;6.50;;
8337;SDS011;4206;48.634;9.516;2023-06-22T00:30:46;10.30;;;6.23;;
8337;SDS011;4206;48.634;9.516;2023-06-22T00:33:15;9.10;;;6.90;;
8337;SDS011;4206;48.634;9.516;2023-06-22T00:35:42;7.00;;;6.10;;
8337;SDS011;4206;48.634;9.516;2023-06-22T00:38:10;11.07;;;6.87;;
8337;SDS011;4206;48.634;9.516;2023-06-22T00:40:37;12.30;;;6.73;;
8337;SDS011;4206;48.634;9.516;2023-06-22T00:43:04;11.10;;;7.60;;
8337;SDS011;4206;48.634;9.516;2023-06-22T00:45:32;11.13;;;7.77;;
8337;SDS011;4206;48.634;9.516;2023-06-22T00:47:59;13.50;;;7.33;;
8337;SDS011;4206;48.634;9.516;2023-06-22T00:50:28;10.63;;;7.93;;
8337;SDS011;4206;48.634;9.516;2023-06-22T00:53:01;12.30;;;7.90;;
8337;SDS011;4206;48.634;9.516;2023-06-22T00:55:35;11.20;;;8.30;;
8337;SDS011;4206;48.634;9.516;2023-06-22T00:58:06;11.93;;;8.53;;
8337;SDS011;4206;48.634;9.516;2023-06-22T01:00:37;13.77;;;8.87;;
8337;SDS011;4206;48.634;9.516;2023-06-22T01:03:05;14.90;;;8.47;;
8337;SDS011;4206;48.634;9.516;2023-06-22T01:05:36;9.40;;;8.13;;
8337;SDS011;4206;48.634;9.516;2023-06-22T01:10:41;15.80;;;9.50;;
8337;SDS011;4206;48.634;9.516;2023-06-22T01:15:45;10.00;;;8.17;;
8337;SDS011;4206;48.634;9.516;2023-06-22T01:18:17;12.30;;;7.70;;
8337;SDS011;4206;48.634;9.516;2023-06-22T01:20:45;13.70;;;9.67;;
8337;SDS011;4206;48.634;9.516;2023-06-22T01:31:12;13.77;;;8.60;;
8337;SDS011;4206;48.634;9.516;2023-06-22T01:33:43;13.73;;;8.23;;
8337;SDS011;4206;48.634;9.516;2023-06-22T01:36:13;14.20;;;8.40;;
8337;SDS011;4206;48.634;9.516;2023-06-22T01:38:40;9.20;;;6.80;;
8337;SDS011;4206;48.634;9.516;2023-06-22T01:41:09;12.50;;;8.13;;
8337;SDS011;4206;48.634;9.516;2023-06-22T01:43:37;21.10;;;8.23;;
8337;SDS011;4206;48.634;9.516;2023-06-22T01:46:04;12.70;;;7.90;;
8337;SDS011;4206;48.634;9.516;2023-06-22T01:48:32;10.20;;;8.10;;
8337;SDS011;4206;48.634;9.516;2023-06-22T01:50:59;10.37;;;7.87;;
8337;SDS011;4206;48.634;9.516;2023-06-22T01:53:26;19.20;;;9.07;;
8337;SDS011;4206;48.634;9.516;2023-06-22T01:55:53;13.13;;;9.13;;
8337;SDS011;4206;48.634;9.516;2023-06-22T01:58:20;11.53;;;8.60;;
8337;SDS011;4206;48.634;9.516;2023-06-22T02:00:51;13.93;;;8.27;;
8337;SDS011;4206;48.634;9.516;2023-06-22T02:03:26;9.60;;;8.00;;
8337;SDS011;4206;48.634;9.516;2023-06-22T02:06:00;12.13;;;7.90;;
8337;SDS011;4206;48.634;9.516;2023-06-22T02:08:32;12.37;;;8.43;;
8337;SDS011;4206;48.634;9.516;2023-06-22T02:11:04;10.33;;;8.10;;
8337;SDS011;4206;48.634;9.516;2023-06-22T02:13:32;11.67;;;8.50;;
8337;SDS011;4206;48.634;9.516;2023-06-22T02:16:00;12.07;;;8.20;;
8337;SDS011;4206;48.634;9.516;2023-06-22T02:18:27;13.90;;;8.70;;
8337;SDS011;4206;48.634;9.516;2023-06-22T02:20:54;13.73;;;9.20;;
8337;SDS011;4206;48.634;9.516;2023-06-22T02:23:21;16.87;;;9.30;;
8337;SDS011;4206;48.634;9.516;2023-06-22T02:25:48;11.63;;;7.70;;
8337;SDS011;4206;48.634;9.516;2023-06-22T02:28:15;11.70;;;9.03;;
8337;SDS011;4206;48.634;9.516;2023-06-22T02:30:42;12.43;;;8.00;;
8337;SDS011;4206;48.634;9.516;2023-06-22T02:33:09;13.83;;;7.97;;
8337;SDS011;4206;48.634;9.516;2023-06-22T02:35:36;12.10;;;7.97;;
8337;SDS011;4206;48.634;9.516;2023-06-22T02:38:03;14.57;;;8.67;;
8337;SDS011;4206;48.634;9.516;2023-06-22T02:40:31;8.90;;;7.60;;
8337;SDS011;4206;48.634;9.516;2023-06-22T02:42:58;14.20;;;7.53;;
8337;SDS011;4206;48.634;9.516;2023-06-22T02:45:28;12.90;;;7.57;;
8337;SDS011;4206;48.634;9.516;2023-06-22T02:47:55;9.07;;;7.80;;
8337;SDS011;4206;48.634;9.516;2023-06-22T02:50:23;13.23;;;9.40;;
8337;SDS011;4206;48.634;9.516;2023-06-22T02:52:50;11.63;;;8.57;;
8337;SDS011;4206;48.634;9.516;2023-06-22T02:55:17;15.50;;;8.80;;
8337;SDS011;4206;48.634;9.516;2023-06-22T02:57:44;18.43;;;9.67;;
8337;SDS011;4206;48.634;9.516;2023-06-22T03:00:13;16.53;;;9.43;;
8337;SDS011;4206;48.634;9.516;2023-06-22T03:02:44;13.40;;;9.30;;
8337;SDS011;4206;48.634;9.516;2023-06-22T03:05:14;12.30;;;9.20;;
8337;SDS011;4206;48.634;9.516;2023-06-22T03:07:44;12.70;;;9.77;;
8337;SDS011;4206;48.634;9.516;2023-06-22T03:10:12;11.33;;;9.60;;
8337;SDS011;4206;48.634;9.516;2023-06-22T03:12:40;15.97;;;10.53;;
8337;SDS011;4206;48.634;9.516;2023-06-22T03:15:08;13.70;;;9.50;;
8337;SDS011;4206;48.634;9.516;2023-06-22T03:17:37;13.90;;;8.90;;
8337;SDS011;4206;48.634;9.516;2023-06-22T03:20:05;12.13;;;9.07;;
8337;SDS011;4206;48.634;9.516;2023-06-22T03:22:36;11.17;;;8.43;;
8337;SDS011;4206;48.634;9.516;2023-06-22T03:25:03;16.80;;;9.50;;
8337;SDS011;4206;48.634;9.516;2023-06-22T03:27:30;12.60;;;8.20;;
8337;SDS011;4206;48.634;9.516;2023-06-22T03:29:57;10.70;;;8.17;;
8337;SDS011;4206;48.634;9.516;2023-06-22T03:32:24;18.63;;;8.73;;
8337;SDS011;4206;48.634;9.516;2023-06-22T03:34:54;16.13;;;8.00;;
8337;SDS011;4206;48.634;9.516;2023-06-22T03:37:25;19.63;;;8.50;;
8337;SDS011;4206;48.634;9.516;2023-06-22T03:39:52;11.87;;;8.50;;
8337;SDS011;4206;48.634;9.516;2023-06-22T03:42:19;11.40;;;8.63;;
8337;SDS011;4206;48.634;9.516;2023-06-22T03:44:48;12.67;;;8.50;;
8337;SDS011;4206;48.634;9.516;2023-06-22T03:47:15;10.00;;;7.60;;
8337;SDS011;4206;48.634;9.516;2023-06-22T03:49:42;12.00;;;8.00;;
8337;SDS011;4206;48.634;9.516;2023-06-22T03:52:09;16.03;;;8.70;;
8337;SDS011;4206;48.634;9.516;2023-06-22T03:54:37;20.93;;;8.73;;
8337;SDS011;4206;48.634;9.516;2023-06-22T03:57:04;15.10;;;8.07;;
8337;SDS011;4206;48.634;9.516;2023-06-22T03:59:31;13.40;;;7.20;;
8337;SDS011;4206;48.634;9.516;2023-06-22T04:01:58;11.60;;;6.57;;
8337;SDS011;4206;48.634;9.516;2023-06-22T04:04:25;14.67;;;7.40;;
8337;SDS011;4206;48.634;9.516;2023-06-22T04:06:53;11.27;;;6.67;;
8337;SDS011;4206;48.634;9.516;2023-06-22T04:09:20;9.03;;;6.20;;
8337;SDS011;4206;48.634;9.516;2023-06-22T04:11:48;14.77;;;6.20;;
8337;SDS011;4206;48.634;9.516;2023-06-22T04:14:15;12.70;;;7.00;;
8337;SDS011;4206;48.634;9.516;2023-06-22T04:16:41;9.30;;;6.53;;
8337;SDS011;4206;48.634;9.516;2023-06-22T04:19:09;10.07;;;7.10;;
8337;SDS011;4206;48.634;9.516;2023-06-22T04:21:42;12.33;;;6.83;;
8337;SDS011;4206;48.634;9.516;2023-06-22T04:24:11;9.93;;;6.90;;
8337;SDS011;4206;48.634;9.516;2023-06-22T04:26:38;11.27;;;7.57;;
8337;SDS011;4206;48.634;9.516;2023-06-22T04:29:07;8.43;;;6.40;;
8337;SDS011;4206;48.634;9.516;2023-06-22T04:31:35;13.40;;;7.00;;
8337;SDS011;4206;48.634;9.516;2023-06-22T04:34:03;10.47;;;6.73;;
8337;SDS011;4206;48.634;9.516;2023-06-22T04:36:34;10.17;;;6.20;;
8337;SDS011;4206;48.634;9.516;2023-06-22T04:39:05;9.37;;;5.77;;
8337;SDS011;4206;48.634;9.516;2023-06-22T04:41:33;10.60;;;6.77;;
8337;SDS011;4206;48.634;9.516;2023-06-22T04:44:08;10.07;;;6.70;;
8337;SDS011;4206;48.634;9.516;2023-06-22T04:46:36;13.60;;;6.90;;
8337;SDS011;4206;48.634;9.516;2023-06-22T04:49:05;8.27;;;5.50;;
8337;SDS011;4206;48.634;9.516;2023-06-22T04:51:37;8.73;;;5.00;;
8337;SDS011;4206;48.634;9.516;2023-06-22T04:54:07;11.90;;;5.10;;
8337;SDS011;4206;48.634;9.516;2023-06-22T04:56:34;8.67;;;4.90;;
8337;SDS011;4206;48.634;9.516;2023-06-22T04:59:02;10.00;;;5.30;;
8337;SDS011;4206;48.634;9.516;2023-06-22T05:01:30;9.87;;;5.20;;
8337;SDS011;4206;48.634;9.516;2023-06-22T05:03:58;7.30;;;5.67;;
8337;SDS011;4206;48.634;9.516;2023-06-22T05:06:27;8.87;;;5.10;;
8337;SDS011;4206;48.634;9.516;2023-06-22T05:08:55;5.67;;;4.57;;
8337;SDS011;4206;48.634;9.516;2023-06-22T05:11:24;7.63;;;5.37;;
8337;SDS011;4206;48.634;9.516;2023-06-22T05:13:52;9.33;;;4.90;;
8337;SDS011;4206;48.634;9.516;2023-06-22T05:16:19;9.20;;;5.20;;
8337;SDS011;4206;48.634;9.516;2023-06-22T05:18:51;7.60;;;5.00;;
8337;SDS011;4206;48.634;9.516;2023-06-22T05:21:23;8.20;;;4.90;;
8337;SDS011;4206;48.634;9.516;2023-06-22T05:23:53;8.10;;;4.43;;
8337;SDS011;4206;48.634;9.516;2023-06-22T05:26:20;5.77;;;4.87;;
8337;SDS011;4206;48.634;9.516;2023-06-22T05:28:48;9.07;;;4.60;;
8337;SDS011;4206;48.634;9.516;2023-06-22T05:31:15;7.10;;;5.13;;
8337;SDS011;4206;48.634;9.516;2023-06-22T05:33:43;7.83;;;4.37;;
8337;SDS011;4206;48.634;9.516;2023-06-22T05:36:10;7.70;;;4.40;;
8337;SDS011;4206;48.634;9.516;2023-06-22T05:38:37;6.60;;;4.40;;
8337;SDS011;4206;48.634;9.516;2023-06-22T05:41:04;8.40;;;4.30;;
8337;SDS011;4206;48.634;9.516;2023-06-22T05:43:31;13.40;;;4.63;;
8337;SDS011;4206;48.634;9.516;2023-06-22T05:45:59;6.70;;;3.93;;
8337;SDS011;4206;48.634;9.516;2023-06-22T05:48:27;5.60;;;4.07;;
8337;SDS011;4206;48.634;9.516;2023-06-22T05:50:54;7.77;;;3.90;;
8337;SDS011;4206;48.634;9.516;2023-06-22T05:53:21;10.03;;;4.40;;
8337;SDS011;4206;48.634;9.516;2023-06-22T05:55:48;5.70;;;3.57;;
8337;SDS011;4206;48.634;9.516;2023-06-22T05:58:15;9.03;;;3.57;;
8337;SDS011;4206;48.634;9.516;2023-06-22T06:00:42;6.60;;;3.73;;
8337;SDS011;4206;48.634;9.516;2023-06-22T06:03:09;4.30;;;2.97;;
8337;SDS011;4206;48.634;9.516;2023-06-22T06:05:40;7.80;;;3.90;;
8337;SDS011;4206;48.634;9.516;2023-06-22T06:08:10;6.20;;;3.77;;
8337;SDS011;4206;48.634;9.516;2023-06-22T06:10:37;5.43;;;2.63;;
8337;SDS011;4206;48.634;9.516;2023-06-22T06:13:04;4.37;;;3.07;;
8337;SDS011;4206;48.634;9.516;2023-06-22T06:15:32;8.73;;;3.50;;
8337;SDS011;4206;48.634;9.516;2023-06-22T06:18:00;7.00;;;3.60;;
8337;SDS011;4206;48.634;9.516;2023-06-22T06:20:29;10.73;;;3.50;;
8337;SDS011;4206;48.634;9.516;2023-06-22T06:22:56;9.27;;;3.73;;
8337;SDS011;4206;48.634;9.516;2023-06-22T06:25:23;5.00;;;2.90;;
8337;SDS011;4206;48.634;9.516;2023-06-22T06:27:51;8.60;;;3.50;;
8337;SDS011;4206;48.634;9.516;2023-06-22T06:30:20;9.03;;;3.43;;
8337;SDS011;4206;48.634;9.516;2023-06-22T06:32:49;7.90;;;3.73;;
8337;SDS011;4206;48.634;9.516;2023-06-22T06:35:16;9.80;;;4.10;;
8337;SDS011;4206;48.634;9.516;2023-06-22T06:37:44;11.03;;;3.90;;
8337;SDS011;4206;48.634;9.516;2023-06-22T06:40:13;7.93;;;5.00;;
8337;SDS011;4206;48.634;9.516;2023-06-22T06:42:41;10.50;;;4.60;;
8337;SDS011;4206;48.634;9.516;2023-06-22T06:47:39;8.80;;;4.30;;
8337;SDS011;4206;48.634;9.516;2023-06-22T06:50:06;9.37;;;4.00;;
8337;SDS011;4206;48.634;9.516;2023-06-22T06:52:34;11.90;;;3.70;;
8337;SDS011;4206;48.634;9.516;2023-06-22T06:55:04;9.83;;;3.43;;
8337;SDS011;4206;48.634;9.516;2023-06-22T06:57:35;14.37;;;4.57;;
8337;SDS011;4206;48.634;9.516;2023-06-22T07:00:05;12.40;;;4.80;;
8337;SDS011;4206;48.634;9.516;2023-06-22T07:02:36;9.57;;;4.40;;
8337;SDS011;4206;48.634;9.516;2023-06-22T07:05:03;9.80;;;4.30;;
8337;SDS011;4206;48.634;9.516;2023-06-22T07:07:31;13.60;;;4.57;;
8337;SDS011;4206;48.634;9.516;2023-06-22T07:10:02;8.40;;;4.30;;
8337;SDS011;4206;48.634;9.516;2023-06-22T07:12:32;11.20;;;3.63;;
8337;SDS011;4206;48.634;9.516;2023-06-22T07:15:01;13.43;;;5.30;;
8337;SDS011;4206;48.634;9.516;2023-06-22T07:17:31;9.30;;;4.63;;
8337;SDS011;4206;48.634;9.516;2023-06-22T07:19:58;7.53;;;4.40;;
8337;SDS011;4206;48.634;9.516;2023-06-22T07:22:25;11.00;;;4.70;;
8337;SDS011;4206;48.634;9.516;2023-06-22T07:24:52;16.83;;;4.60;;
8337;SDS011;4206;48.634;9.516;2023-06-22T07:27:19;10.10;;;5.07;;
8337;SDS011;4206;48.634;9.516;2023-06-22T07:29:47;14.40;;;4.50;;
8337;SDS011;4206;48.634;9.516;2023-06-22T07:32:14;13.70;;;4.90;;
8337;SDS011;4206;48.634;9.516;2023-06-22T07:34:41;7.20;;;4.20;;
8337;SDS011;4206;48.634;9.516;2023-06-22T07:37:08;10.87;;;4.37;;
8337;SDS011;4206;48.634;9.516;2023-06-22T07:39:35;10.43;;;5.00;;
8337;SDS011;4206;48.634;9.516;2023-06-22T07:42:04;10.70;;;4.73;;
8337;SDS011;4206;48.634;9.516;2023-06-22T07:44:31;10.70;;;4.83;;
8337;SDS011;4206;48.634;9.516;2023-06-22T07:46:58;11.10;;;4.30;;
8337;SDS011;4206;48.634;9.516;2023-06-22T07:49:25;11.77;;;5.17;;
8337;SDS011;4206;48.634;9.516;2023-06-22T07:51:52;11.07;;;5.17;;
8337;SDS011;4206;48.634;9.516;2023-06-22T07:54:18;8.57;;;4.97;;
8337;SDS011;4206;48.634;9.516;2023-06-22T07:56:46;12.77;;;4.70;;
8337;SDS011;4206;48.634;9.516;2023-06-22T07:59:12;12.27;;;4.63;;
8337;SDS011;4206;48.634;9.516;2023-06-22T08:01:39;11.97;;;4.83;;
8337;SDS011;4206;48.634;9.516;2023-06-22T08:04:06;9.10;;;4.70;;
8337;SDS011;4206;48.634;9.516;2023-06-22T08:06:34;13.00;;;5.20;;
8337;SDS011;4206;48.634;9.516;2023-06-22T08:09:00;11.00;;;4.17;;
8337;SDS011;4206;48.634;9.516;2023-06-22T08:11:27;10.15;;;4.57;;
8337;SDS011;4206;48.634;9.516;2023-06-22T08:13:54;16.73;;;5.30;;
8337;SDS011;4206;48.634;9.516;2023-06-22T08:16:24;10.73;;;4.93;;
8337;SDS011;4206;48.634;9.516;2023-06-22T08:18:51;10.65;;;4.75;;
8337;SDS011;4206;48.634;9.516;2023-06-22T08:21:18;15.05;;;5.32;;
8337;SDS011;4206;48.634;9.516;2023-06-22T08:23:45;14.25;;;5.38;;
8337;SDS011;4206;48.634;9.516;2023-06-22T08:26:12;7.78;;;4.75;;
8337;SDS011;4206;48.634;9.516;2023-06-22T08:28:40;16.05;;;4.90;;
8337;SDS011;4206;48.634;9.516;2023-06-22T08:31:07;8.68;;;4.30;;
8337;SDS011;4206;48.634;9.516;2023-06-22T08:33:35;9.63;;;5.07;;
8337;SDS011;4206;48.634;9.516;2023-06-22T08:36:02;13.20;;;4.88;;
8337;SDS011;4206;48.634;9.516;2023-06-22T08:38:29;12.48;;;5.10;;
8337;SDS011;4206;48.634;9.516;2023-06-22T08:40:55;10.32;;;4.97;;
8337;SDS011;4206;48.634;9.516;2023-06-22T08:43:22;13.55;;;5.50;;
8337;SDS011;4206;48.634;9.516;2023-06-22T08:45:49;10.50;;;5.95;;
8337;SDS011;4206;48.634;9.516;2023-06-22T08:48:16;13.65;;;4.55;;
8337;SDS011;4206;48.634;9.516;2023-06-22T08:50:44;9.23;;;5.07;;
8337;SDS011;4206;48.634;9.516;2023-06-22T08:53:11;10.80;;;5.22;;
8337;SDS011;4206;48.634;9.516;2023-06-22T08:55:39;12.60;;;5.03;;
8337;SDS011;4206;48.634;9.516;2023-06-22T08:58:06;12.57;;;5.35;;
8337;SDS011;4206;48.634;9.516;2023-06-22T09:00:33;12.23;;;4.88;;
8337;SDS011;4206;48.634;9.516;2023-06-22T09:03:01;10.70;;;4.85;;
8337;SDS011;4206;48.634;9.516;2023-06-22T09:05:28;12.52;;;5.68;;
8337;SDS011;4206;48.634;9.516;2023-06-22T09:07:56;16.23;;;5.32;;
8337;SDS011;4206;48.634;9.516;2023-06-22T09:10:25;13.40;;;5.22;;
8337;SDS011;4206;48.634;9.516;2023-06-22T09:12:52;10.68;;;5.25;;
8337;SDS011;4206;48.634;9.516;2023-06-22T09:15:19;15.77;;;5.55;;
8337;SDS011;4206;48.634;9.516;2023-06-22T09:17:46;14.95;;;5.55;;
8337;SDS011;4206;48.634;9.516;2023-06-22T09:20:15;11.57;;;5.57;;
8337;SDS011;4206;48.634;9.516;2023-06-22T09:22:42;11.35;;;5.35;;
8337;SDS011;4206;48.634;9.516;2023-06-22T09:25:09;13.05;;;5.30;;
8337;SDS011;4206;48.634;9.516;2023-06-22T09:27:36;16.33;;;6.13;;
8337;SDS011;4206;48.634;9.516;2023-06-22T09:30:03;8.38;;;5.60;;
8337;SDS011;4206;48.634;9.516;2023-06-22T09:32:31;9.68;;;5.68;;
8337;SDS011;4206;48.634;9.516;2023-06-22T09:34:58;18.52;;;6.43;;
8337;SDS011;4206;48.634;9.516;2023-06-22T09:37:25;10.50;;;5.95;;
8337;SDS011;4206;48.634;9.516;2023-06-22T09:39:52;12.73;;;5.57;;
8337;SDS011;4206;48.634;9.516;2023-06-22T09:42:19;10.95;;;6.40;;
8337;SDS011;4206;48.634;9.516;2023-06-22T09:44:47;21.83;;;5.97;;
8337;SDS011;4206;48.634;9.516;2023-06-22T09:47:14;12.70;;;5.88;;
8337;SDS011;4206;48.634;9.516;2023-06-22T09:49:40;10.10;;;6.47;;
8337;SDS011;4206;48.634;9.516;2023-06-22T09:52:14;10.35;;;5.88;;
8337;SDS011;4206;48.634;9.516;2023-06-22T09:54:41;11.23;;;5.70;;
8337;SDS011;4206;48.634;9.516;2023-06-22T09:57:07;13.15;;;6.72;;
8337;SDS011;4206;48.634;9.516;2023-06-22T09:59:34;10.68;;;5.75;;
8337;SDS011;4206;48.634;9.516;2023-06-22T10:02:01;12.77;;;6.13;;
8337;SDS011;4206;48.634;9.516;2023-06-22T10:04:28;10.93;;;6.35;;
8337;SDS011;4206;48.634;9.516;2023-06-22T10:06:56;14.45;;;6.25;;
8337;SDS011;4206;48.634;9.516;2023-06-22T10:09:23;10.65;;;6.45;;
8337;SDS011;4206;48.634;9.516;2023-06-22T10:11:50;15.13;;;6.05;;
8337;SDS011;4206;48.634;9.516;2023-06-22T10:14:16;14.45;;;6.72;;
8337;SDS011;4206;48.634;9.516;2023-06-22T10:16:43;13.00;;;6.82;;
8337;SDS011;4206;48.634;9.516;2023-06-22T10:19:10;12.02;;;6.25;;
8337;SDS011;4206;48.634;9.516;2023-06-22T10:21:37;9.45;;;6.20;;
8337;SDS011;4206;48.634;9.516;2023-06-22T10:24:04;14.85;;;6.85;;
8337;SDS011;4206;48.634;9.516;2023-06-22T10:26:33;19.38;;;6.88;;
8337;SDS011;4206;48.634;9.516;2023-06-22T10:29:00;16.75;;;7.32;;
8337;SDS011;4206;48.634;9.516;2023-06-22T10:31:42;12.68;;;6.57;;
8337;SDS011;4206;48.634;9.516;2023-06-22T10:34:09;17.30;;;6.30;;
8337;SDS011;4206;48.634;9.516;2023-06-22T10:36:35;9.40;;;5.45;;
8337;SDS011;4206;48.634;9.516;2023-06-22T10:39:02;12.35;;;5.95;;
8337;SDS011;4206;48.634;9.516;2023-06-22T10:41:29;13.45;;;5.82;;
8337;SDS011;4206;48.634;9.516;2023-06-22T10:43:57;12.98;;;6.18;;
8337;SDS011;4206;48.634;9.516;2023-06-22T10:46:24;15.68;;;6.32;;
8337;SDS011;4206;48.634;9.516;2023-06-22T10:48:52;12.63;;;6.32;;
8337;SDS011;4206;48.634;9.516;2023-06-22T10:51:21;9.32;;;5.43;;
8337;SDS011;4206;48.634;9.516;2023-06-22T10:53:48;10.35;;;6.45;;
8337;SDS011;4206;48.634;9.516;2023-06-22T10:56:17;11.98;;;6.00;;
8337;SDS011;4206;48.634;9.516;2023-06-22T10:58:46;11.50;;;5.78;;
8337;SDS011;4206;48.634;9.516;2023-06-22T11:01:13;15.90;;;6.32;;
8337;SDS011;4206;48.634;9.516;2023-06-22T11:04:00;18.80;;;5.90;;
8337;SDS011;4206;48.634;9.516;2023-06-22T11:06:27;13.70;;;6.10;;
8337;SDS011;4206;48.634;9.516;2023-06-22T11:08:54;15.90;;;6.30;;
8337;SDS011;4206;48.634;9.516;2023-06-22T11:11:31;15.30;;;5.93;;
8337;SDS011;4206;48.634;9.516;2023-06-22T11:13:59;13.30;;;6.15;;
8337;SDS011;4206;48.634;9.516;2023-06-22T11:16:26;12.60;;;7.07;;
8337;SDS011;4206;48.634;9.516;2023-06-22T11:18:53;13.25;;;6.63;;
8337;SDS011;4206;48.634;9.516;2023-06-22T11:21:20;12.75;;;5.97;;
8337;SDS011;4206;48.634;9.516;2023-06-22T11:23:47;16.10;;;6.78;;
8337;SDS011;4206;48.634;9.516;2023-06-22T11:26:15;12.07;;;5.50;;
8337;SDS011;4206;48.634;9.516;2023-06-22T11:28:41;10.88;;;6.53;;
8337;SDS011;4206;48.634;9.516;2023-06-22T11:31:08;14.27;;;6.63;;
8337;SDS011;4206;48.634;9.516;2023-06-22T11:33:51;20.05;;;7.15;;
8337;SDS011;4206;48.634;9.516;2023-06-22T11:36:19;12.02;;;6.43;;
8337;SDS011;4206;48.634;9.516;2023-06-22T11:38:46;16.52;;;6.40;;
8337;SDS011;4206;48.634;9.516;2023-06-22T11:41:13;11.48;;;6.43;;
8337;SDS011;4206;48.634;9.516;2023-06-22T11:43:40;25.63;;;7.03;;
8337;SDS011;4206;48.634;9.516;2023-06-22T11:46:06;17.30;;;7.10;;
8337;SDS011;4206;48.634;9.516;2023-06-22T11:48:34;14.40;;;6.68;;
8337;SDS011;4206;48.634;9.516;2023-06-22T11:51:01;17.23;;;6.57;;
8337;SDS011;4206;48.634;9.516;2023-06-22T11:53:29;11.55;;;6.05;;
8337;SDS011;4206;48.634;9.516;2023-06-22T11:55:56;17.38;;;6.30;;
8337;SDS011;4206;48.634;9.516;2023-06-22T11:58:23;9.85;;;5.97;;
8337;SDS011;4206;48.634;9.516;2023-06-22T12:00:50;13.77;;;6.57;;
8337;SDS011;4206;48.634;9.516;2023-06-22T12:03:19;13.52;;;6.18;;
8337;SDS011;4206;48.634;9.516;2023-06-22T12:05:49;11.88;;;7.13;;
8337;SDS011;4206;48.634;9.516;2023-06-22T12:08:17;12.73;;;6.55;;
8337;SDS011;4206;48.634;9.516;2023-06-22T12:10:45;18.30;;;6.47;;
8337;SDS011;4206;48.634;9.516;2023-06-22T12:13:12;12.98;;;6.53;;
8337;SDS011;4206;48.634;9.516;2023-06-22T12:15:39;14.13;;;6.47;;
8337;SDS011;4206;48.634;9.516;2023-06-22T12:18:06;14.88;;;6.43;;
8337;SDS011;4206;48.634;9.516;2023-06-22T12:20:33;11.45;;;6.65;;
8337;SDS011;4206;48.634;9.516;2023-06-22T12:23:01;16.85;;;7.25;;
8337;SDS011;4206;48.634;9.516;2023-06-22T12:25:28;11.70;;;5.63;;
8337;SDS011;4206;48.634;9.516;2023-06-22T12:27:55;10.73;;;5.72;;
8337;SDS011;4206;48.634;9.516;2023-06-22T12:30:22;12.35;;;6.55;;
8337;SDS011;4206;48.634;9.516;2023-06-22T12:32:50;16.83;;;6.80;;
8337;SDS011;4206;48.634;9.516;2023-06-22T12:35:20;13.77;;;6.13;;
8337;SDS011;4206;48.634;9.516;2023-06-22T12:37:47;14.30;;;6.45;;
8337;SDS011;4206;48.634;9.516;2023-06-22T12:40:14;10.63;;;5.88;;
8337;SDS011;4206;48.634;9.516;2023-06-22T12:42:41;15.13;;;6.35;;
8337;SDS011;4206;48.634;9.516;2023-06-22T12:45:08;19.92;;;7.57;;
8337;SDS011;4206;48.634;9.516;2023-06-22T12:47:35;15.60;;;6.15;;
8337;SDS011;4206;48.634;9.516;2023-06-22T12:50:03;14.80;;;5.95;;
8337;SDS011;4206;48.634;9.516;2023-06-22T12:52:30;17.80;;;5.93;;
8337;SDS011;4206;48.634;9.516;2023-06-22T12:54:58;17.10;;;6.50;;
8337;SDS011;4206;48.634;9.516;2023-06-22T12:57:25;14.07;;;6.95;;
8337;SDS011;4206;48.634;9.516;2023-06-22T12:59:52;20.92;;;6.35;;
8337;SDS011;4206;48.634;9.516;2023-06-22T13:02:19;11.52;;;5.30;;
8337;SDS011;4206;48.634;9.516;2023-06-22T13:04:46;11.35;;;5.75;;
8337;SDS011;4206;48.634;9.516;2023-06-22T13:07:13;15.82;;;6.20;;
8337;SDS011;4206;48.634;9.516;2023-06-22T13:09:48;22.08;;;6.78;;
8337;SDS011;4206;48.634;9.516;2023-06-22T13:12:19;12.23;;;6.57;;
8337;SDS011;4206;48.634;9.516;2023-06-22T13:14:49;11.98;;;5.88;;
8337;SDS011;4206;48.634;9.516;2023-06-22T13:17:16;10.88;;;5.80;;
8337;SDS011;4206;48.634;9.516;2023-06-22T13:19:43;12.32;;;6.53;;
8337;SDS011;4206;48.634;9.516;2023-06-22T13:24:57;16.42;;;6.00;;
8337;SDS011;4206;48.634;9.516;2023-06-22T13:27:25;15.50;;;5.82;;
8337;SDS011;4206;48.634;9.516;2023-06-22T13:29:52;14.90;;;6.18;;
8337;SDS011;4206;48.634;9.516;2023-06-22T13:32:19;11.32;;;5.75;;
8337;SDS011;4206;48.634;9.516;2023-06-22T13:34:46;17.33;;;5.43;;
8337;SDS011;4206;48.634;9.516;2023-06-22T13:37:13;17.48;;;6.05;;
8337;SDS011;4206;48.634;9.516;2023-06-22T13:39:40;14.45;;;5.60;;
8337;SDS011;4206;48.634;9.516;2023-06-22T13:42:08;15.32;;;6.13;;
8337;SDS011;4206;48.634;9.516;2023-06-22T13:44:35;9.18;;;5.75;;
8337;SDS011;4206;48.634;9.516;2023-06-22T13:47:02;9.68;;;5.78;;
8337;SDS011;4206;48.634;9.516;2023-06-22T13:49:30;13.65;;;6.00;;
8337;SDS011;4206;48.634;9.516;2023-06-22T13:51:57;10.85;;;5.35;;
8337;SDS011;4206;48.634;9.516;2023-06-22T13:54:25;12.20;;;5.50;;
8337;SDS011;4206;48.634;9.516;2023-06-22T13:56:55;16.67;;;6.57;;
8337;SDS011;4206;48.634;9.516;2023-06-22T13:59:22;10.63;;;5.60;;
8337;SDS011;4206;48.634;9.516;2023-06-22T14:01:49;16.23;;;6.45;;
8337;SDS011;4206;48.634;9.516;2023-06-22T14:04:16;15.30;;;6.35;;
8337;SDS011;4206;48.634;9.516;2023-06-22T14:06:46;12.27;;;5.75;;
8337;SDS011;4206;48.634;9.516;2023-06-22T14:09:15;17.35;;;6.07;;
8337;SDS011;4206;48.634;9.516;2023-06-22T14:11:42;13.68;;;6.15;;
8337;SDS011;4206;48.634;9.516;2023-06-22T14:14:09;20.23;;;7.00;;
8337;SDS011;4206;48.634;9.516;2023-06-22T14:16:36;12.32;;;5.40;;
8337;SDS011;4206;48.634;9.516;2023-06-22T14:19:03;12.70;;;5.68;;
8337;SDS011;4206;48.634;9.516;2023-06-22T14:21:30;13.02;;;5.60;;
8337;SDS011;4206;48.634;9.516;2023-06-22T14:23:57;16.00;;;5.25;;
8337;SDS011;4206;48.634;9.516;2023-06-22T14:26:24;13.13;;;6.13;;
8337;SDS011;4206;48.634;9.516;2023-06-22T14:28:51;11.43;;;5.90;;
8337;SDS011;4206;48.634;9.516;2023-06-22T14:31:19;9.25;;;5.90;;
8337;SDS011;4206;48.634;9.516;2023-06-22T14:33:47;20.88;;;5.32;;
8337;SDS011;4206;48.634;9.516;2023-06-22T14:36:15;11.27;;;4.93;;
8337;SDS011;4206;48.634;9.516;2023-06-22T14:38:44;9.65;;;4.93;;
8337;SDS011;4206;48.634;9.516;2023-06-22T14:41:13;12.27;;;5.43;;
8337;SDS011;4206;48.634;9.516;2023-06-22T14:43:45;17.77;;;5.43;;
8337;SDS011;4206;48.634;9.516;2023-06-22T14:46:15;13.10;;;5.70;;
8337;SDS011;4206;48.634;9.516;2023-06-22T14:48:44;12.20;;;5.28;;
8337;SDS011;4206;48.634;9.516;2023-06-22T14:51:12;11.18;;;5.95;;
8337;SDS011;4206;48.634;9.516;2023-06-22T14:53:43;14.50;;;5.13;;
8337;SDS011;4206;48.634;9.516;2023-06-22T14:56:11;13.57;;;5.53;;
8337;SDS011;4206;48.634;9.516;2023-06-22T14:58:40;10.80;;;4.32;;
8337;SDS011;4206;48.634;9.516;2023-06-22T15:01:13;23.27;;;5.63;;
8337;SDS011;4206;48.634;9.516;2023-06-22T15:03:40;12.05;;;4.50;;
8337;SDS011;4206;48.634;9.516;2023-06-22T15:06:08;15.75;;;5.40;;
8337;SDS011;4206;48.634;9.516;2023-06-22T15:08:37;11.80;;;5.13;;
8337;SDS011;4206;48.634;9.516;2023-06-22T15:11:05;13.82;;;5.07;;
8337;SDS011;4206;48.634;9.516;2023-06-22T15:13:32;15.70;;;5.40;;
8337;SDS011;4206;48.634;9.516;2023-06-22T15:16:01;14.45;;;4.97;;
8337;SDS011;4206;48.634;9.516;2023-06-22T15:18:30;12.77;;;5.07;;
8337;SDS011;4206;48.634;9.516;2023-06-22T15:20:59;15.52;;;5.35;;
8337;SDS011;4206;48.634;9.516;2023-06-22T15:23:28;13.82;;;5.38;;
8337;SDS011;4206;48.634;9.516;2023-06-22T15:25:56;12.25;;;5.80;;
8337;SDS011;4206;48.634;9.516;2023-06-22T15:28:23;10.40;;;5.30;;